createdAt,value
2018-06-29T00:02:25.659Z,54.08
2018-06-29T00:04:54.151Z,50.97
2018-06-29T00:07:22.715Z,45.28
2018-06-29T00:09:51.227Z,53.40
2018-06-29T00:12:19.747Z,54.47
2018-06-29T00:14:48.462Z,60.90
2018-06-29T00:17:17.370Z,56.07
2018-06-29T00:19:45.843Z,63.60
2018-06-29T00:31:51.606Z,62.03
2018-06-29T00:34:20.067Z,62.67
2018-06-29T00:36:48.795Z,56.63
2018-06-29T00:39:17.430Z,70.70
2018-06-29T00:41:45.938Z,54.17
2018-06-29T00:52:00.549Z,67.27
2018-06-29T00:54:29.067Z,68.60
2018-06-29T00:56:57.597Z,66.27
2018-06-29T00:59:26.104Z,67.23
2018-06-29T01:01:54.832Z,71.73
2018-06-29T01:04:23.442Z,60.54
2018-06-29T01:06:52.063Z,73.73
2018-06-29T01:09:22.661Z,60.50
2018-06-29T01:11:51.335Z,57.07
2018-06-29T01:14:20.258Z,54.97
2018-06-29T01:16:48.878Z,50.80
2018-06-29T01:19:17.459Z,56.93
2018-06-29T01:21:46.042Z,56.00
2018-06-29T01:24:16.065Z,64.00
2018-06-29T01:26:44.666Z,58.70
2018-06-29T01:29:13.233Z,56.17
2018-06-29T01:31:41.794Z,63.57
2018-06-29T01:34:10.326Z,49.18
2018-06-29T01:36:38.904Z,56.07
2018-06-29T01:39:09.406Z,49.40
2018-06-29T01:41:37.915Z,51.17
2018-06-29T01:44:06.462Z,62.07
2018-06-29T01:46:35.084Z,52.77
2018-06-29T01:49:03.566Z,62.57
2018-06-29T01:51:32.115Z,55.90
2018-06-29T01:54:00.621Z,53.07
2018-06-29T01:56:29.190Z,59.33
2018-06-29T01:58:58.126Z,59.10
2018-06-29T02:01:26.643Z,56.20
2018-06-29T02:03:55.223Z,46.20
2018-06-29T02:06:23.741Z,53.03
2018-06-29T02:08:52.231Z,49.60
2018-06-29T02:11:20.747Z,50.78
2018-06-29T02:13:49.253Z,61.27
2018-06-29T02:16:17.787Z,62.80
2018-06-29T02:18:46.342Z,58.97
2018-06-29T02:21:16.810Z,54.75
2018-06-29T02:23:45.299Z,61.57
2018-06-29T02:26:14.698Z,63.50
2018-06-29T02:28:43.349Z,59.53
2018-06-29T02:31:11.879Z,64.73
2018-06-29T02:33:40.070Z,59.18
2018-06-29T02:36:08.603Z,64.90
2018-06-29T02:38:37.108Z,59.33
2018-06-29T02:41:06.034Z,68.57
2018-06-29T02:43:34.870Z,56.90
2018-06-29T02:46:03.423Z,50.33
2018-06-29T02:48:31.694Z,56.40
2018-06-29T02:51:00.443Z,49.93
2018-06-29T02:53:28.933Z,58.37
2018-06-29T02:55:57.427Z,66.47
2018-06-29T02:58:25.972Z,61.80
2018-06-29T03:00:54.497Z,58.02
2018-06-29T03:03:22.672Z,60.23
2018-06-29T03:05:51.640Z,58.93
2018-06-29T03:08:19.801Z,51.97
2018-06-29T03:10:48.341Z,60.20
2018-06-29T03:13:18.820Z,51.62
2018-06-29T03:15:46.977Z,60.23
2018-06-29T03:18:15.999Z,61.25
2018-06-29T03:20:44.578Z,60.52
2018-06-29T03:23:13.098Z,68.47
2018-06-29T03:25:41.649Z,73.67
2018-06-29T03:28:10.639Z,67.43
2018-06-29T03:30:39.124Z,60.93
2018-06-29T03:33:07.682Z,58.90
2018-06-29T03:35:36.117Z,70.33
2018-06-29T03:38:04.622Z,66.00
2018-06-29T03:40:33.370Z,60.23
2018-06-29T03:43:02.075Z,61.63
2018-06-29T03:45:30.567Z,54.55
2018-06-29T03:47:59.031Z,61.00
2018-06-29T03:50:27.951Z,69.95
2018-06-29T03:52:56.458Z,58.68
2018-06-29T03:55:24.617Z,52.77
2018-06-29T03:57:53.131Z,61.93
2018-06-29T04:00:21.603Z,63.38
2018-06-29T04:02:50.095Z,52.87
2018-06-29T04:05:19.035Z,54.03
2018-06-29T04:07:47.482Z,52.70
2018-06-29T04:10:17.478Z,56.10
2018-06-29T04:12:46.435Z,56.43
2018-06-29T04:35:53.634Z,55.43
2018-06-29T04:38:22.142Z,64.43
2018-06-29T04:40:50.607Z,55.97
2018-06-29T04:43:19.810Z,63.20
2018-06-29T04:45:48.330Z,52.33
2018-06-29T04:48:17.528Z,56.77
2018-06-29T04:50:46.037Z,56.40
2018-06-29T05:05:46.730Z,53.40
2018-06-29T05:20:47.003Z,52.00
2018-06-29T05:23:17.088Z,53.37
2018-06-29T05:25:45.617Z,63.03
2018-06-29T05:28:15.533Z,41.58
2018-06-29T05:30:44.060Z,56.17
2018-06-29T05:33:12.657Z,63.40
2018-06-29T05:35:42.228Z,51.73
2018-06-29T05:38:10.791Z,53.83
2018-06-29T05:40:39.286Z,55.80
2018-06-29T05:43:07.764Z,50.17
2018-06-29T05:45:37.472Z,53.33
2018-06-29T05:48:06.034Z,54.80
2018-06-29T05:50:34.351Z,55.23
2018-06-29T05:53:02.956Z,60.95
2018-06-29T05:55:31.579Z,59.33
2018-06-29T05:58:00.186Z,57.50
2018-06-29T06:00:28.748Z,59.53
2018-06-29T06:02:57.366Z,61.63
2018-06-29T06:05:25.952Z,53.53
2018-06-29T06:07:54.955Z,55.90
2018-06-29T06:10:23.485Z,53.80
2018-06-29T06:12:51.986Z,57.73
2018-06-29T06:15:20.527Z,52.17
2018-06-29T06:17:49.015Z,51.43
2018-06-29T06:20:17.490Z,43.98
2018-06-29T06:22:46.497Z,50.83
2018-06-29T06:34:36.551Z,49.33
2018-06-29T06:37:05.369Z,49.77
2018-06-29T06:39:33.846Z,52.67
2018-06-29T06:42:02.491Z,63.47
2018-06-29T06:44:30.675Z,51.40
2018-06-29T06:46:59.473Z,43.17
2018-06-29T06:49:28.033Z,44.67
2018-06-29T06:51:56.562Z,48.23
2018-06-29T06:54:25.075Z,51.47
2018-06-29T06:56:53.970Z,46.67
2018-06-29T06:59:22.595Z,47.65
2018-06-29T07:01:51.034Z,48.57
2018-06-29T07:04:19.619Z,41.15
2018-06-29T07:06:48.163Z,49.20
2018-06-29T07:09:17.483Z,49.45
2018-06-29T07:11:46.399Z,48.13
2018-06-29T07:26:47.866Z,40.70
2018-06-29T07:29:16.602Z,46.33
2018-06-29T07:31:45.104Z,45.33
2018-06-29T07:34:13.588Z,42.07
2018-06-29T07:36:41.762Z,35.13
2018-06-29T07:39:10.944Z,37.93
2018-06-29T07:41:39.528Z,41.30
2018-06-29T07:44:08.398Z,38.70
2018-06-29T07:46:36.954Z,36.60
2018-06-29T07:49:05.961Z,40.48
2018-06-29T07:51:34.563Z,38.77
2018-06-29T07:54:03.096Z,41.93
2018-06-29T07:56:31.638Z,39.03
2018-06-29T07:59:00.457Z,35.60
2018-06-29T08:01:28.970Z,34.03
2018-06-29T08:03:57.503Z,37.55
2018-06-29T08:06:26.803Z,37.00
2018-06-29T08:08:55.289Z,42.00
2018-06-29T08:11:23.807Z,46.03
2018-06-29T08:13:52.327Z,37.93
2018-06-29T08:16:20.897Z,38.95
2018-06-29T08:18:49.385Z,36.45
2018-06-29T08:21:19.041Z,36.08
2018-06-29T08:23:47.627Z,36.53
2018-06-29T08:26:24.137Z,34.63
2018-06-29T08:28:52.840Z,40.03
2018-06-29T08:31:21.414Z,34.90
2018-06-29T08:33:50.150Z,39.80
2018-06-29T08:36:18.368Z,34.40
2018-06-29T08:38:47.843Z,37.60
2018-06-29T08:41:17.771Z,34.83
2018-06-29T08:43:46.290Z,34.80
2018-06-29T08:46:16.616Z,34.27
2018-06-29T08:48:46.859Z,37.17
2018-06-29T08:51:17.952Z,35.20
2018-06-29T08:53:46.662Z,36.48
2018-06-29T08:56:16.756Z,33.23
2018-06-29T08:58:45.329Z,36.03
2018-06-29T09:01:14.483Z,39.10
2018-06-29T09:03:43.245Z,37.40
2018-06-29T09:06:11.846Z,37.67
2018-06-29T09:08:40.013Z,37.53
2018-06-29T09:11:08.655Z,36.47
2018-06-29T09:13:37.214Z,38.07
2018-06-29T09:16:07.794Z,38.13
2018-06-29T09:18:36.428Z,45.43
2018-06-29T09:21:04.951Z,40.70
2018-06-29T09:23:35.029Z,40.35
2018-06-29T09:26:04.241Z,39.60
2018-06-29T09:28:33.162Z,42.70
2018-06-29T09:31:01.763Z,41.50
2018-06-29T09:33:30.695Z,43.77
2018-06-29T09:35:59.179Z,48.40
2018-06-29T09:38:27.890Z,51.10
2018-06-29T09:52:29.027Z,46.80
2018-06-29T09:54:57.747Z,41.55
2018-06-29T09:57:26.256Z,46.50
2018-06-29T09:59:55.006Z,47.53
2018-06-29T10:02:24.077Z,45.45
2018-06-29T10:04:52.814Z,44.60
2018-06-29T10:07:21.936Z,44.18
2018-06-29T10:09:50.495Z,44.23
2018-06-29T10:12:18.666Z,47.30
2018-06-29T10:14:47.608Z,42.83
2018-06-29T10:17:16.567Z,47.33
2018-06-29T10:19:45.187Z,43.67
2018-06-29T10:22:14.744Z,42.80
2018-06-29T10:24:43.323Z,43.20
2018-06-29T10:27:11.835Z,43.17
2018-06-29T10:29:40.495Z,39.40
2018-06-29T10:32:08.967Z,39.97
2018-06-29T10:43:17.538Z,40.12
2018-06-29T10:45:46.027Z,37.83
2018-06-29T10:56:36.255Z,38.90
2018-06-29T10:59:04.926Z,38.93
2018-06-29T11:01:33.470Z,37.27
2018-06-29T11:04:01.971Z,38.03
2018-06-29T11:06:30.592Z,38.17
2018-06-29T11:08:59.625Z,38.63
2018-06-29T11:11:28.200Z,40.37
2018-06-29T11:13:56.894Z,42.03
2018-06-29T11:16:25.406Z,40.50
2018-06-29T11:18:53.863Z,38.83
2018-06-29T11:21:22.396Z,38.83
2018-06-29T11:23:50.696Z,43.70
2018-06-29T11:26:19.376Z,39.65
2018-06-29T11:28:47.961Z,39.60
2018-06-29T11:31:17.638Z,37.30
2018-06-29T11:33:46.224Z,38.43
2018-06-29T11:36:16.610Z,39.35
2018-06-29T11:38:45.094Z,35.40
2018-06-29T11:41:13.620Z,38.10
2018-06-29T11:43:41.790Z,37.63
2018-06-29T11:46:10.311Z,35.20
2018-06-29T11:48:38.942Z,34.20
2018-06-29T11:51:07.494Z,36.77
2018-06-29T11:53:35.996Z,38.50
2018-06-29T11:56:04.605Z,38.10
2018-06-29T11:58:32.791Z,33.30
2018-06-29T12:01:01.946Z,36.97
2018-06-29T12:03:30.531Z,38.80
2018-06-29T12:05:59.560Z,37.60
2018-06-29T12:08:28.144Z,33.90
2018-06-29T12:10:56.935Z,32.83
2018-06-29T12:13:26.626Z,33.27
2018-06-29T12:15:55.747Z,32.53
2018-06-29T12:18:24.764Z,33.18
2018-06-29T12:20:53.274Z,32.20
2018-06-29T12:23:22.156Z,32.40
2018-06-29T12:25:51.400Z,38.05
2018-06-29T12:28:19.686Z,43.83
2018-06-29T12:30:48.338Z,36.07
2018-06-29T12:33:17.587Z,33.23
2018-06-29T12:35:46.138Z,31.70
2018-06-29T12:57:26.221Z,29.20
2018-06-29T12:59:54.771Z,37.40
2018-06-29T13:02:23.796Z,37.98
2018-06-29T13:04:52.301Z,34.57
2018-06-29T13:07:20.801Z,34.75
2018-06-29T13:09:49.450Z,34.27
2018-06-29T13:12:18.007Z,31.13
2018-06-29T13:14:46.722Z,32.20
2018-06-29T13:29:47.578Z,29.90
2018-06-29T13:32:17.555Z,30.17
2018-06-29T13:34:46.086Z,29.97
2018-06-29T13:37:16.622Z,31.50
2018-06-29T13:39:45.151Z,29.43
2018-06-29T13:42:14.540Z,34.50
2018-06-29T13:44:43.026Z,28.13
2018-06-29T13:47:11.831Z,27.17
2018-06-29T13:49:40.314Z,29.93
2018-06-29T13:52:08.907Z,29.27
2018-06-29T13:54:37.514Z,27.52
2018-06-29T13:57:05.738Z,27.60
2018-06-29T13:59:34.295Z,23.80
2018-06-29T14:02:03.323Z,26.33
2018-06-29T14:04:32.349Z,27.33
2018-06-29T14:07:00.899Z,28.37
2018-06-29T14:09:29.644Z,29.90
2018-06-29T14:11:58.669Z,30.13
2018-06-29T14:14:29.016Z,28.13
2018-06-29T14:16:57.524Z,30.82
2018-06-29T14:19:26.031Z,28.30
2018-06-29T14:21:54.531Z,25.10
2018-06-29T14:24:23.086Z,28.17
2018-06-29T14:26:51.628Z,24.70
2018-06-29T14:29:20.108Z,26.83
2018-06-29T14:31:48.730Z,30.87
2018-06-29T14:34:17.415Z,27.07
2018-06-29T14:36:45.910Z,30.17
2018-06-29T14:39:15.520Z,27.90
2018-06-29T14:41:43.666Z,30.80
2018-06-29T14:44:12.790Z,25.77
2018-06-29T14:46:43.090Z,31.17
2018-06-29T14:49:11.646Z,27.47
2018-06-29T14:51:40.143Z,25.40
2018-06-29T14:54:08.705Z,34.77
2018-06-29T14:56:37.539Z,29.30
2018-06-29T14:59:06.023Z,26.43
2018-06-29T15:01:34.519Z,25.27
2018-06-29T15:04:03.054Z,25.97
2018-06-29T15:06:32.227Z,28.00
2018-06-29T15:09:00.759Z,29.03
2018-06-29T15:11:29.231Z,24.23
2018-06-29T15:13:57.699Z,26.10
2018-06-29T15:16:26.246Z,22.22
2018-06-29T15:18:54.814Z,25.93
2018-06-29T15:21:23.402Z,26.07
2018-06-29T15:23:52.030Z,26.03
2018-06-29T15:26:20.584Z,22.95
2018-06-29T15:28:49.061Z,22.37
2018-06-29T15:31:17.640Z,23.10
2018-06-29T15:33:46.095Z,21.67
2018-06-29T15:43:50.091Z,21.97
2018-06-29T15:46:18.606Z,22.77
2018-06-29T15:48:47.320Z,19.03
2018-06-29T15:51:18.451Z,18.90
2018-06-29T15:53:46.661Z,21.67
2018-06-29T15:56:15.891Z,21.20
2018-06-29T15:58:44.370Z,18.67
2018-06-29T16:01:12.851Z,18.97
2018-06-29T16:03:41.322Z,18.93
2018-06-29T16:06:09.899Z,21.20
2018-06-29T16:14:24.231Z,20.43
2018-06-29T16:16:52.742Z,20.83
2018-06-29T16:19:21.198Z,19.07
2018-06-29T16:21:49.674Z,19.57
2018-06-29T16:24:18.211Z,23.03
2018-06-29T16:26:46.684Z,23.50
2018-06-29T16:29:17.741Z,27.37
2018-06-29T16:31:46.235Z,21.63
2018-06-29T16:34:16.997Z,22.85
2018-06-29T16:36:45.453Z,23.13
2018-06-29T16:39:15.651Z,23.52
2018-06-29T16:41:44.182Z,20.83
2018-06-29T16:44:12.650Z,21.97
2018-06-29T16:46:41.183Z,21.73
2018-06-29T16:49:09.737Z,21.30
2018-06-29T16:51:38.426Z,23.40
2018-06-29T16:54:06.982Z,21.17
2018-06-29T16:56:35.496Z,22.42
2018-06-29T16:59:04.149Z,22.80
2018-06-29T17:01:32.659Z,22.30
2018-06-29T17:04:01.138Z,41.50
2018-06-29T17:06:29.651Z,23.12
2018-06-29T17:08:58.424Z,25.30
2018-06-29T17:11:26.943Z,17.70
2018-06-29T17:13:55.081Z,17.48
2018-06-29T17:16:23.816Z,25.00
2018-06-29T17:18:52.414Z,24.10
2018-06-29T17:21:20.983Z,23.10
2018-06-29T17:23:49.595Z,22.22
2018-06-29T17:26:18.087Z,23.50
2018-06-29T17:28:46.636Z,24.27
2018-06-29T17:39:41.240Z,23.47
2018-06-29T17:42:09.783Z,25.70
2018-06-29T17:50:23.967Z,27.40
2018-06-29T17:52:52.658Z,28.90
2018-06-29T17:55:22.073Z,27.13
2018-06-29T17:57:51.080Z,29.67
2018-06-29T18:00:19.641Z,30.26
2018-06-29T18:02:48.215Z,26.23
2018-06-29T18:05:17.687Z,27.80
2018-06-29T18:07:46.945Z,26.10
2018-06-29T18:20:01.561Z,24.95
2018-06-29T18:22:32.730Z,28.87
2018-06-29T18:25:02.044Z,26.30
2018-06-29T18:27:30.246Z,26.40
2018-06-29T18:29:58.862Z,27.70
2018-06-29T18:32:27.418Z,28.35
2018-06-29T18:34:55.888Z,25.70
2018-06-29T18:37:24.414Z,27.35
2018-06-29T18:39:53.719Z,28.93
2018-06-29T18:42:22.646Z,27.57
2018-06-29T18:44:51.191Z,26.07
2018-06-29T18:47:19.742Z,28.40
2018-06-29T18:49:49.994Z,30.53
2018-06-29T18:52:18.520Z,26.90
2018-06-29T18:54:47.143Z,26.00
2018-06-29T18:57:17.607Z,27.77
2018-06-29T18:59:46.122Z,26.73
2018-06-29T19:02:17.412Z,28.02
2018-06-29T19:04:45.971Z,27.87
2018-06-29T19:07:15.655Z,28.10
2018-06-29T19:09:44.275Z,27.40
2018-06-29T19:12:13.319Z,28.70
2018-06-29T19:14:41.885Z,30.17
2018-06-29T19:17:10.451Z,32.30
2018-06-29T19:19:38.935Z,31.53
2018-06-29T19:22:07.508Z,29.20
2018-06-29T19:24:36.251Z,30.37
2018-06-29T19:27:04.915Z,30.00
2018-06-29T19:29:33.451Z,28.80
2018-06-29T19:32:02.030Z,31.50
2018-06-29T19:34:30.565Z,31.83
2018-06-29T19:36:59.159Z,34.40
2018-06-29T19:39:27.739Z,32.77
2018-06-29T19:41:56.287Z,31.50
2018-06-29T19:44:24.871Z,32.27
2018-06-29T19:46:53.395Z,32.73
2018-06-29T19:49:21.901Z,32.08
2018-06-29T19:51:50.395Z,31.53
2018-06-29T19:54:19.032Z,33.37
2018-06-29T19:56:47.612Z,33.17
2018-06-29T19:59:17.234Z,32.30
2018-06-29T20:01:49.885Z,30.60
2018-06-29T20:04:18.255Z,33.33
2018-06-29T20:06:46.805Z,32.87
2018-06-29T20:09:16.587Z,30.70
2018-06-29T20:11:44.808Z,30.33
2018-06-29T20:14:15.459Z,31.00
2018-06-29T20:16:44.150Z,31.17
2018-06-29T20:19:12.862Z,41.83
2018-06-29T20:21:41.469Z,31.00
2018-06-29T20:24:10.091Z,33.53
2018-06-29T20:26:38.680Z,30.30
2018-06-29T20:29:07.438Z,30.47
2018-06-29T20:31:36.995Z,32.53
2018-06-29T20:34:05.832Z,30.87
2018-06-29T20:36:34.505Z,30.75
2018-06-29T20:39:03.421Z,32.33
2018-06-29T20:41:32.157Z,32.60
2018-06-29T20:44:00.767Z,34.37
2018-06-29T20:46:29.516Z,33.20
2018-06-29T20:48:58.102Z,32.97
2018-06-29T20:51:26.719Z,32.57
2018-06-29T20:53:55.353Z,30.07
2018-06-29T20:56:24.003Z,31.03
2018-06-29T20:58:52.790Z,34.83
2018-06-29T21:01:21.359Z,37.80
2018-06-29T21:03:50.069Z,33.23
2018-06-29T21:06:18.567Z,29.70
2018-06-29T21:08:47.200Z,32.47
2018-06-29T21:11:17.522Z,33.10
2018-06-29T21:13:46.441Z,32.90
2018-06-29T21:16:16.906Z,32.75
2018-06-29T21:18:45.179Z,37.53
2018-06-29T21:21:14.077Z,30.40
2018-06-29T21:23:42.855Z,36.53
2018-06-29T21:26:11.322Z,34.13
2018-06-29T21:28:39.976Z,32.50
2018-06-29T21:31:08.512Z,32.93
2018-06-29T21:33:36.972Z,34.37
2018-06-29T21:36:05.546Z,36.37
2018-06-29T21:38:34.104Z,32.45
2018-06-29T21:41:02.696Z,42.00
2018-06-29T21:43:31.240Z,34.30
2018-06-29T21:45:59.827Z,34.90
2018-06-29T21:48:28.363Z,33.83
2018-06-29T21:50:56.902Z,33.97
2018-06-29T21:53:25.402Z,34.30
2018-06-29T21:55:53.931Z,36.23
2018-06-29T21:58:22.474Z,44.53
2018-06-29T22:00:54.086Z,34.40
2018-06-29T22:03:23.825Z,36.80
2018-06-29T22:05:53.390Z,34.17
2018-06-29T22:08:22.063Z,33.53
2018-06-29T22:10:50.492Z,38.83
2018-06-29T22:13:19.102Z,34.78
2018-06-29T22:15:47.886Z,39.30
2018-06-29T22:18:17.845Z,33.18
2018-06-29T22:20:46.418Z,32.00
2018-06-29T22:32:01.909Z,33.20
2018-06-29T22:34:30.419Z,33.07
2018-06-29T22:36:59.074Z,34.30
2018-06-29T22:39:27.639Z,33.13
2018-06-29T22:41:56.298Z,33.13
2018-06-29T22:44:27.835Z,31.00
2018-06-29T22:46:56.343Z,37.97
2018-06-29T22:49:25.608Z,35.67
2018-06-29T22:51:54.197Z,34.63
2018-06-29T22:54:23.250Z,32.93
2018-06-29T22:56:51.830Z,34.20
2018-06-29T22:59:20.478Z,33.47
2018-06-29T23:01:48.844Z,34.20
2018-06-29T23:04:17.576Z,34.13
2018-06-29T23:06:46.412Z,32.73
2018-06-29T23:29:44.632Z,35.17
2018-06-29T23:32:13.196Z,31.23
2018-06-29T23:34:41.700Z,36.47
2018-06-29T23:37:10.154Z,30.70
2018-06-29T23:39:38.674Z,31.97
2018-06-29T23:42:07.454Z,32.57
2018-06-29T23:44:35.934Z,32.83
2018-06-29T23:47:05.181Z,31.42
2018-06-29T23:49:33.705Z,34.38
2018-06-29T23:52:02.389Z,31.40
2018-06-29T23:54:31.181Z,33.23
2018-06-29T23:56:59.687Z,31.63
2018-06-29T23:59:32.354Z,33.20
